Wakefield, MI (49968)

3:01 PM CST on February 27, 2017 (GMT -0600)
Sunday Lake | | Change Station

Elev 1600 ft 46.48 °N, 89.95 °W | Updated 7 seconds ago

Clear
Clear
42.1 °F
Feels Like 39 °F
N
4.8
Wind Variable Wind from SSE
Gusts 4.8 mph

Today
High -- | Low -- °F
--% Chance of Precip.
Yesterday
High -- | Low -- °F
Precip. -- in
Pressure 29.99 in
Visibility 10.0 miles
Clouds Scattered Clouds 7000 ft
Windchill 39 °F
Dew Point 23 °F
Humidity 46%
Rainfall 0.04 in
Snow Depth Not available.
6:42 AM 5:43 PM
New Moon, 2% visible
METAR KIWD 272056Z AUTO 28006KT 10SM SCT070 04/M06 A2992 RMK AO2 SLP155 T00391056 56017
Pressure 29.99 in
Visibility 10.0 miles
Clouds Scattered Clouds 7000 ft
Windchill 39 °F
Dew Point 23 °F
Humidity 46%
Rainfall 0.04 in
Snow Depth Not available.
6:42 AM 5:43 PM
New Moon, 2% visible
METAR KIWD 272056Z AUTO 28006KT 10SM SCT070 04/M06 A2992 RMK AO2 SLP155 T00391056 56017

Get Your Daily Forecast Email!

Thanks for signing up!

Be on the lookout for a verification email in your inbox.

You'll start receiving the daily forecast at 8 AM.

×

10-Day Weather Forecast

Almanac

Astronomy

Feb. 27, 2017 Rise Set
Actual Time
Civil Twilight
Nautical Twilight
Astronomical Twilight
Moon
Length of Visible Light
Length of Day
Tomorrow will be .
, % of the Moon is Illuminated

Today's Extremes

State Highs State Lows

Community

WunderPhotos

Upload Photos

1,962,540 photos uploaded!

WunderBlog® & News

Nearby

Air Quality

  Air Quality AQ Index Pollutant
Not available.

Snow Depth

Station Depth Elevation

Earthquake Activity

City Distance Mag. Time & Date
Minimum magnitude displayed is 2.5.

Coastal Water Temperatures

Place Temperature

Stations

Nearby Weather Stations

Station Location Temp. Windchill Dew Point Humidity Wind Precip. Elev Updated Type
                   

Watches & Warnings

There are currently no watches in effect.